West Wyoming, Pennsylvania
Current Conditions -  °F | °C
As of 7:54 PM on Tuesday 27 Jan 2015 (Local Time) from KAVP Reporting Station
Unknown Precip Unknown Precip  
Wind Chill:   Ceiling: 2300
Heat Index: 14°   Visibility: 10mi
Dew Point:   Wind: 12mph
Humidity: 64%   Direction: 330°NNW
Pressure: 29.86"   Gusts: 21mph
Location:  41.3369°N, 75.8786°W
Report Text: KAVP 280054Z 33010G18KT 10SM UP OVC023 M10/M16 A2986 RMK AO2 PK WND 35026/0014 UPB47 SLP127 P0000 T11001156
Loading
Personal Weather Stations






























Interactive Weather Map New forecast layout! Learn more

10-Day Weather Forecast

Advertisements
Track Severe Weather on mobile